sensor_id;sensor_type;location;lat;lon;timestamp;P1;durP1;ratioP1;P2;durP2;ratioP2
38935;SDS011;25541;47.458;9.644;2022-10-16T04:03:00;4.57;;;0.22;;
38935;SDS011;25541;47.458;9.644;2022-10-16T04:05:26;1.50;;;0.28;;
38935;SDS011;25541;47.458;9.644;2022-10-16T04:07:51;2.20;;;0.15;;
38935;SDS011;25541;47.458;9.644;2022-10-16T04:10:17;2.17;;;0.30;;
38935;SDS011;25541;47.458;9.644;2022-10-16T04:12:44;5.68;;;0.30;;
38935;SDS011;25541;47.458;9.644;2022-10-16T04:15:10;1.90;;;0.20;;
38935;SDS011;25541;47.458;9.644;2022-10-16T04:17:35;3.05;;;0.22;;
38935;SDS011;25541;47.458;9.644;2022-10-16T04:20:01;0.70;;;0.13;;
38935;SDS011;25541;47.458;9.644;2022-10-16T04:22:27;1.90;;;0.30;;
38935;SDS011;25541;47.458;9.644;2022-10-16T04:24:53;1.00;;;0.30;;
38935;SDS011;25541;47.458;9.644;2022-10-16T04:27:19;2.40;;;0.20;;
38935;SDS011;25541;47.458;9.644;2022-10-16T04:29:44;2.70;;;0.20;;
38935;SDS011;25541;47.458;9.644;2022-10-16T04:32:10;0.80;;;0.20;;
38935;SDS011;25541;47.458;9.644;2022-10-16T04:34:36;1.73;;;0.30;;
38935;SDS011;25541;47.458;9.644;2022-10-16T04:37:04;2.45;;;0.60;;
38935;SDS011;25541;47.458;9.644;2022-10-16T04:39:30;3.95;;;0.45;;
38935;SDS011;25541;47.458;9.644;2022-10-16T04:41:55;5.90;;;0.90;;
38935;SDS011;25541;47.458;9.644;2022-10-16T04:44:21;9.85;;;0.60;;
38935;SDS011;25541;47.458;9.644;2022-10-16T04:46:47;4.63;;;0.45;;
38935;SDS011;25541;47.458;9.644;2022-10-16T04:49:16;3.75;;;0.65;;
38935;SDS011;25541;47.458;9.644;2022-10-16T04:51:41;4.03;;;0.70;;
38935;SDS011;25541;47.458;9.644;2022-10-16T04:54:08;3.40;;;0.70;;
38935;SDS011;25541;47.458;9.644;2022-10-16T04:56:34;2.83;;;0.50;;
38935;SDS011;25541;47.458;9.644;2022-10-16T04:59:07;5.60;;;0.65;;
38935;SDS011;25541;47.458;9.644;2022-10-16T05:01:34;4.15;;;1.20;;
38935;SDS011;25541;47.458;9.644;2022-10-16T05:04:00;5.38;;;0.50;;
38935;SDS011;25541;47.458;9.644;2022-10-16T05:06:26;4.25;;;1.00;;
38935;SDS011;25541;47.458;9.644;2022-10-16T05:08:52;2.90;;;0.60;;
38935;SDS011;25541;47.458;9.644;2022-10-16T05:11:17;1.63;;;0.40;;
38935;SDS011;25541;47.458;9.644;2022-10-16T05:13:43;2.75;;;0.20;;
38935;SDS011;25541;47.458;9.644;2022-10-16T05:16:09;2.42;;;0.50;;
38935;SDS011;25541;47.458;9.644;2022-10-16T05:18:34;1.85;;;0.20;;
38935;SDS011;25541;47.458;9.644;2022-10-16T05:21:00;2.65;;;0.60;;
38935;SDS011;25541;47.458;9.644;2022-10-16T05:23:26;1.33;;;0.30;;
38935;SDS011;25541;47.458;9.644;2022-10-16T05:25:52;5.00;;;0.60;;
38935;SDS011;25541;47.458;9.644;2022-10-16T05:28:19;1.30;;;0.30;;
38935;SDS011;25541;47.458;9.644;2022-10-16T05:30:45;1.30;;;0.50;;
38935;SDS011;25541;47.458;9.644;2022-10-16T05:33:11;1.92;;;0.32;;
38935;SDS011;25541;47.458;9.644;2022-10-16T05:35:36;2.95;;;0.22;;
38935;SDS011;25541;47.458;9.644;2022-10-16T05:38:02;2.03;;;0.40;;
38935;SDS011;25541;47.458;9.644;2022-10-16T05:40:28;1.58;;;0.20;;
38935;SDS011;25541;47.458;9.644;2022-10-16T05:42:56;3.50;;;0.20;;
38935;SDS011;25541;47.458;9.644;2022-10-16T05:45:22;2.78;;;0.25;;
38935;SDS011;25541;47.458;9.644;2022-10-16T05:47:48;5.07;;;0.57;;
38935;SDS011;25541;47.458;9.644;2022-10-16T05:50:13;3.92;;;0.30;;
38935;SDS011;25541;47.458;9.644;2022-10-16T05:52:39;1.85;;;0.40;;
38935;SDS011;25541;47.458;9.644;2022-10-16T05:55:05;6.38;;;0.45;;
38935;SDS011;25541;47.458;9.644;2022-10-16T05:57:31;2.10;;;0.20;;
38935;SDS011;25541;47.458;9.644;2022-10-16T05:59:56;1.75;;;0.25;;
38935;SDS011;25541;47.458;9.644;2022-10-16T06:02:22;2.15;;;0.20;;
38935;SDS011;25541;47.458;9.644;2022-10-16T06:04:48;1.00;;;0.20;;
38935;SDS011;25541;47.458;9.644;2022-10-16T06:07:13;3.65;;;0.40;;
38935;SDS011;25541;47.458;9.644;2022-10-16T06:09:39;1.05;;;0.20;;
38935;SDS011;25541;47.458;9.644;2022-10-16T06:12:05;3.53;;;0.30;;
38935;SDS011;25541;47.458;9.644;2022-10-16T06:14:30;3.80;;;0.40;;
38935;SDS011;25541;47.458;9.644;2022-10-16T06:16:56;4.40;;;0.35;;
38935;SDS011;25541;47.458;9.644;2022-10-16T06:19:22;2.90;;;0.20;;
38935;SDS011;25541;47.458;9.644;2022-10-16T06:21:48;2.05;;;0.40;;
38935;SDS011;25541;47.458;9.644;2022-10-16T06:24:14;1.42;;;0.20;;
38935;SDS011;25541;47.458;9.644;2022-10-16T06:26:39;1.85;;;0.30;;
38935;SDS011;25541;47.458;9.644;2022-10-16T06:29:05;3.95;;;0.40;;
38935;SDS011;25541;47.458;9.644;2022-10-16T06:31:31;1.75;;;0.30;;
38935;SDS011;25541;47.458;9.644;2022-10-16T06:33:58;2.47;;;0.77;;
38935;SDS011;25541;47.458;9.644;2022-10-16T06:36:24;2.13;;;0.20;;
38935;SDS011;25541;47.458;9.644;2022-10-16T06:38:51;1.88;;;0.15;;
38935;SDS011;25541;47.458;9.644;2022-10-16T06:41:18;4.13;;;0.10;;
38935;SDS011;25541;47.458;9.644;2022-10-16T06:43:45;1.45;;;0.20;;
38935;SDS011;25541;47.458;9.644;2022-10-16T06:46:12;3.95;;;0.30;;
38935;SDS011;25541;47.458;9.644;2022-10-16T06:48:39;2.78;;;0.40;;
38935;SDS011;25541;47.458;9.644;2022-10-16T06:51:12;3.72;;;0.50;;
38935;SDS011;25541;47.458;9.644;2022-10-16T06:53:52;3.08;;;0.63;;
38935;SDS011;25541;47.458;9.644;2022-10-16T06:58:46;2.85;;;1.02;;
38935;SDS011;25541;47.458;9.644;2022-10-16T07:01:12;6.70;;;0.90;;
38935;SDS011;25541;47.458;9.644;2022-10-16T07:03:40;3.70;;;0.30;;
38935;SDS011;25541;47.458;9.644;2022-10-16T07:06:09;1.63;;;0.30;;
38935;SDS011;25541;47.458;9.644;2022-10-16T07:08:37;1.45;;;0.43;;
38935;SDS011;25541;47.458;9.644;2022-10-16T07:11:05;3.15;;;0.52;;
38935;SDS011;25541;47.458;9.644;2022-10-16T07:13:39;1.42;;;0.45;;
38935;SDS011;25541;47.458;9.644;2022-10-16T07:16:07;3.45;;;0.25;;
38935;SDS011;25541;47.458;9.644;2022-10-16T07:18:34;1.85;;;0.28;;
38935;SDS011;25541;47.458;9.644;2022-10-16T07:21:04;1.20;;;0.20;;
38935;SDS011;25541;47.458;9.644;2022-10-16T07:23:30;2.40;;;0.50;;
38935;SDS011;25541;47.458;9.644;2022-10-16T07:25:55;0.75;;;0.30;;
38935;SDS011;25541;47.458;9.644;2022-10-16T07:28:21;1.08;;;0.43;;
38935;SDS011;25541;47.458;9.644;2022-10-16T07:30:47;2.33;;;0.40;;
38935;SDS011;25541;47.458;9.644;2022-10-16T07:33:21;1.90;;;0.43;;
38935;SDS011;25541;47.458;9.644;2022-10-16T07:35:50;2.80;;;0.40;;
38935;SDS011;25541;47.458;9.644;2022-10-16T07:38:17;3.05;;;0.30;;
38935;SDS011;25541;47.458;9.644;2022-10-16T07:40:44;2.45;;;0.60;;
38935;SDS011;25541;47.458;9.644;2022-10-16T07:43:10;1.60;;;0.73;;
38935;SDS011;25541;47.458;9.644;2022-10-16T07:45:36;1.77;;;0.32;;
38935;SDS011;25541;47.458;9.644;2022-10-16T07:48:01;2.10;;;0.43;;
38935;SDS011;25541;47.458;9.644;2022-10-16T07:50:27;1.50;;;0.73;;
38935;SDS011;25541;47.458;9.644;2022-10-16T07:52:53;1.98;;;0.82;;
38935;SDS011;25541;47.458;9.644;2022-10-16T07:55:18;2.88;;;0.75;;
38935;SDS011;25541;47.458;9.644;2022-10-16T07:57:44;1.90;;;0.63;;
38935;SDS011;25541;47.458;9.644;2022-10-16T08:00:10;1.88;;;0.50;;
38935;SDS011;25541;47.458;9.644;2022-10-16T08:02:39;1.83;;;0.52;;
38935;SDS011;25541;47.458;9.644;2022-10-16T08:05:05;0.98;;;0.52;;
38935;SDS011;25541;47.458;9.644;2022-10-16T08:07:31;2.58;;;0.52;;
38935;SDS011;25541;47.458;9.644;2022-10-16T08:09:57;1.48;;;0.52;;
38935;SDS011;25541;47.458;9.644;2022-10-16T08:12:24;1.88;;;0.50;;
38935;SDS011;25541;47.458;9.644;2022-10-16T08:14:51;4.57;;;1.00;;
38935;SDS011;25541;47.458;9.644;2022-10-16T08:17:17;5.55;;;1.23;;
38935;SDS011;25541;47.458;9.644;2022-10-16T08:19:46;3.25;;;0.63;;
38935;SDS011;25541;47.458;9.644;2022-10-16T08:24:38;2.05;;;0.70;;
38935;SDS011;25541;47.458;9.644;2022-10-16T08:27:04;3.65;;;0.75;;
38935;SDS011;25541;47.458;9.644;2022-10-16T08:29:30;2.88;;;1.50;;
38935;SDS011;25541;47.458;9.644;2022-10-16T08:31:56;3.47;;;0.82;;
38935;SDS011;25541;47.458;9.644;2022-10-16T08:34:21;2.63;;;0.88;;
38935;SDS011;25541;47.458;9.644;2022-10-16T08:36:47;2.38;;;0.73;;
38935;SDS011;25541;47.458;9.644;2022-10-16T08:39:12;5.78;;;0.40;;
38935;SDS011;25541;47.458;9.644;2022-10-16T08:50:31;3.47;;;2.03;;
38935;SDS011;25541;47.458;9.644;2022-10-16T08:52:35;4.93;;;1.95;;
38935;SDS011;25541;47.458;9.644;2022-10-16T08:55:05;3.15;;;2.28;;
38935;SDS011;25541;47.458;9.644;2022-10-16T08:57:31;4.45;;;3.17;;
38935;SDS011;25541;47.458;9.644;2022-10-16T09:00:04;3.75;;;3.13;;
38935;SDS011;25541;47.458;9.644;2022-10-16T09:02:37;2.13;;;1.92;;
38935;SDS011;25541;47.458;9.644;2022-10-16T09:05:21;3.30;;;2.83;;
38935;SDS011;25541;47.458;9.644;2022-10-16T09:15:53;3.67;;;3.38;;
38935;SDS011;25541;47.458;9.644;2022-10-16T09:18:24;3.65;;;3.35;;
38935;SDS011;25541;47.458;9.644;2022-10-16T09:21:09;4.55;;;4.15;;
38935;SDS011;25541;47.458;9.644;2022-10-16T09:23:43;4.65;;;4.22;;
38935;SDS011;25541;47.458;9.644;2022-10-16T09:26:12;9.60;;;4.30;;
38935;SDS011;25541;47.458;9.644;2022-10-16T09:28:40;6.22;;;4.45;;
38935;SDS011;25541;47.458;9.644;2022-10-16T09:31:09;4.28;;;3.88;;
38935;SDS011;25541;47.458;9.644;2022-10-16T09:33:44;5.38;;;3.95;;
38935;SDS011;25541;47.458;9.644;2022-10-16T09:36:13;4.32;;;3.92;;
38935;SDS011;25541;47.458;9.644;2022-10-16T09:38:39;5.00;;;4.60;;
38935;SDS011;25541;47.458;9.644;2022-10-16T09:41:13;5.03;;;4.53;;
38935;SDS011;25541;47.458;9.644;2022-10-16T09:43:57;3.92;;;3.58;;
38935;SDS011;25541;47.458;9.644;2022-10-16T09:46:26;5.60;;;5.07;;
38935;SDS011;25541;47.458;9.644;2022-10-16T09:48:54;5.40;;;4.72;;
38935;SDS011;25541;47.458;9.644;2022-10-16T09:51:26;5.47;;;4.97;;
38935;SDS011;25541;47.458;9.644;2022-10-16T09:56:35;8.30;;;4.40;;
38935;SDS011;25541;47.458;9.644;2022-10-16T09:59:17;5.57;;;3.95;;
38935;SDS011;25541;47.458;9.644;2022-10-16T10:04:18;7.85;;;3.65;;
38935;SDS011;25541;47.458;9.644;2022-10-16T10:11:56;7.45;;;4.88;;
38935;SDS011;25541;47.458;9.644;2022-10-16T10:17:07;2.85;;;2.55;;
38935;SDS011;25541;47.458;9.644;2022-10-16T10:19:38;5.30;;;4.70;;
38935;SDS011;25541;47.458;9.644;2022-10-16T10:22:38;4.35;;;3.17;;
38935;SDS011;25541;47.458;9.644;2022-10-16T10:32:49;3.20;;;2.22;;
38935;SDS011;25541;47.458;9.644;2022-10-16T10:35:31;4.05;;;1.90;;
38935;SDS011;25541;47.458;9.644;2022-10-16T10:38:02;5.70;;;1.30;;
38935;SDS011;25541;47.458;9.644;2022-10-16T10:43:28;6.40;;;1.48;;
38935;SDS011;25541;47.458;9.644;2022-10-16T10:46:09;4.30;;;1.02;;
38935;SDS011;25541;47.458;9.644;2022-10-16T10:49:02;2.95;;;1.20;;
38935;SDS011;25541;47.458;9.644;2022-10-16T10:57:44;3.08;;;1.00;;
38935;SDS011;25541;47.458;9.644;2022-10-16T11:03:51;2.00;;;0.95;;
38935;SDS011;25541;47.458;9.644;2022-10-16T11:11:20;4.32;;;0.90;;
38935;SDS011;25541;47.458;9.644;2022-10-16T11:16:39;2.88;;;1.00;;
38935;SDS011;25541;47.458;9.644;2022-10-16T11:24:46;5.05;;;1.45;;
38935;SDS011;25541;47.458;9.644;2022-10-16T11:27:34;2.78;;;1.10;;
38935;SDS011;25541;47.458;9.644;2022-10-16T11:30:05;3.25;;;1.85;;
38935;SDS011;25541;47.458;9.644;2022-10-16T11:35:29;2.63;;;0.95;;
38935;SDS011;25541;47.458;9.644;2022-10-16T11:40:52;2.25;;;0.80;;
38935;SDS011;25541;47.458;9.644;2022-10-16T11:43:30;3.38;;;0.90;;
38935;SDS011;25541;47.458;9.644;2022-10-16T11:46:21;4.97;;;0.93;;
38935;SDS011;25541;47.458;9.644;2022-10-16T11:56:40;3.33;;;1.13;;
38935;SDS011;25541;47.458;9.644;2022-10-16T12:02:28;4.60;;;1.45;;
38935;SDS011;25541;47.458;9.644;2022-10-16T12:04:55;3.03;;;1.05;;
38935;SDS011;25541;47.458;9.644;2022-10-16T12:07:39;2.53;;;0.88;;
38935;SDS011;25541;47.458;9.644;2022-10-16T12:10:27;2.42;;;1.15;;
38935;SDS011;25541;47.458;9.644;2022-10-16T12:12:54;4.38;;;1.23;;
38935;SDS011;25541;47.458;9.644;2022-10-16T12:15:25;2.38;;;0.52;;
38935;SDS011;25541;47.458;9.644;2022-10-16T12:17:53;1.80;;;0.75;;
38935;SDS011;25541;47.458;9.644;2022-10-16T12:20:21;3.53;;;0.70;;
38935;SDS011;25541;47.458;9.644;2022-10-16T12:25:30;2.13;;;0.82;;
38935;SDS011;25541;47.458;9.644;2022-10-16T12:30:28;4.07;;;0.80;;
38935;SDS011;25541;47.458;9.644;2022-10-16T12:33:03;1.98;;;0.82;;
38935;SDS011;25541;47.458;9.644;2022-10-16T12:35:33;1.90;;;0.80;;
38935;SDS011;25541;47.458;9.644;2022-10-16T12:41:10;3.28;;;0.93;;
38935;SDS011;25541;47.458;9.644;2022-10-16T12:43:41;1.92;;;1.00;;
38935;SDS011;25541;47.458;9.644;2022-10-16T12:48:33;3.78;;;0.60;;
38935;SDS011;25541;47.458;9.644;2022-10-16T12:51:21;5.05;;;0.98;;
38935;SDS011;25541;47.458;9.644;2022-10-16T12:53:57;4.82;;;0.93;;
38935;SDS011;25541;47.458;9.644;2022-10-16T12:59:38;2.45;;;0.60;;
38935;SDS011;25541;47.458;9.644;2022-10-16T13:07:37;3.33;;;0.93;;
38935;SDS011;25541;47.458;9.644;2022-10-16T13:10:30;1.67;;;0.70;;
38935;SDS011;25541;47.458;9.644;2022-10-16T13:13:31;3.47;;;0.75;;
38935;SDS011;25541;47.458;9.644;2022-10-16T13:16:29;5.78;;;0.98;;
38935;SDS011;25541;47.458;9.644;2022-10-16T13:27:57;4.05;;;0.88;;
38935;SDS011;25541;47.458;9.644;2022-10-16T13:30:30;2.88;;;0.75;;
38935;SDS011;25541;47.458;9.644;2022-10-16T13:33:15;3.75;;;0.82;;
38935;SDS011;25541;47.458;9.644;2022-10-16T13:35:54;2.85;;;0.93;;
38935;SDS011;25541;47.458;9.644;2022-10-16T13:38:22;2.58;;;0.70;;
38935;SDS011;25541;47.458;9.644;2022-10-16T13:46:10;2.17;;;0.63;;
38935;SDS011;25541;47.458;9.644;2022-10-16T13:48:39;2.33;;;0.68;;
38935;SDS011;25541;47.458;9.644;2022-10-16T13:53:37;3.35;;;0.82;;
38935;SDS011;25541;47.458;9.644;2022-10-16T13:56:03;3.15;;;0.88;;
38935;SDS011;25541;47.458;9.644;2022-10-16T13:58:32;1.70;;;0.60;;
38935;SDS011;25541;47.458;9.644;2022-10-16T14:00:59;3.28;;;0.90;;
38935;SDS011;25541;47.458;9.644;2022-10-16T14:03:26;4.55;;;0.52;;
38935;SDS011;25541;47.458;9.644;2022-10-16T14:05:54;4.32;;;0.80;;
38935;SDS011;25541;47.458;9.644;2022-10-16T14:08:23;1.42;;;0.52;;
38935;SDS011;25541;47.458;9.644;2022-10-16T14:10:52;6.45;;;0.90;;
38935;SDS011;25541;47.458;9.644;2022-10-16T14:13:23;3.33;;;0.82;;
38935;SDS011;25541;47.458;9.644;2022-10-16T14:16:09;4.13;;;0.70;;
38935;SDS011;25541;47.458;9.644;2022-10-16T14:18:37;3.63;;;0.65;;
38935;SDS011;25541;47.458;9.644;2022-10-16T14:21:11;1.65;;;0.50;;
38935;SDS011;25541;47.458;9.644;2022-10-16T14:23:40;1.63;;;0.60;;
38935;SDS011;25541;47.458;9.644;2022-10-16T14:28:36;4.57;;;0.70;;
38935;SDS011;25541;47.458;9.644;2022-10-16T14:31:13;4.60;;;1.05;;
38935;SDS011;25541;47.458;9.644;2022-10-16T14:38:38;1.52;;;0.63;;
38935;SDS011;25541;47.458;9.644;2022-10-16T14:41:06;2.35;;;0.45;;
38935;SDS011;25541;47.458;9.644;2022-10-16T14:43:41;1.13;;;0.38;;
38935;SDS011;25541;47.458;9.644;2022-10-16T14:46:18;3.38;;;0.68;;
38935;SDS011;25541;47.458;9.644;2022-10-16T14:48:47;1.25;;;0.30;;
38935;SDS011;25541;47.458;9.644;2022-10-16T14:51:18;2.25;;;0.43;;
38935;SDS011;25541;47.458;9.644;2022-10-16T14:53:44;2.30;;;0.50;;
38935;SDS011;25541;47.458;9.644;2022-10-16T14:56:17;2.15;;;0.30;;
38935;SDS011;25541;47.458;9.644;2022-10-16T14:58:46;0.70;;;0.30;;
38935;SDS011;25541;47.458;9.644;2022-10-16T15:01:12;2.47;;;0.35;;
38935;SDS011;25541;47.458;9.644;2022-10-16T15:03:38;0.80;;;0.32;;
38935;SDS011;25541;47.458;9.644;2022-10-16T15:06:07;3.20;;;0.35;;
38935;SDS011;25541;47.458;9.644;2022-10-16T15:08:38;3.70;;;0.40;;
38935;SDS011;25541;47.458;9.644;2022-10-16T15:11:04;1.45;;;0.45;;
38935;SDS011;25541;47.458;9.644;2022-10-16T15:13:34;5.60;;;0.80;;
38935;SDS011;25541;47.458;9.644;2022-10-16T15:16:00;2.22;;;0.95;;
38935;SDS011;25541;47.458;9.644;2022-10-16T15:18:26;5.05;;;1.13;;
38935;SDS011;25541;47.458;9.644;2022-10-16T15:20:52;3.55;;;1.25;;
38935;SDS011;25541;47.458;9.644;2022-10-16T15:23:19;5.68;;;0.65;;
38935;SDS011;25541;47.458;9.644;2022-10-16T15:25:55;5.88;;;0.73;;
38935;SDS011;25541;47.458;9.644;2022-10-16T15:28:22;2.53;;;0.73;;
38935;SDS011;25541;47.458;9.644;2022-10-16T15:30:49;2.58;;;0.93;;
38935;SDS011;25541;47.458;9.644;2022-10-16T15:33:18;7.35;;;0.93;;
38935;SDS011;25541;47.458;9.644;2022-10-16T15:35:49;3.15;;;0.90;;
38935;SDS011;25541;47.458;9.644;2022-10-16T15:38:16;4.47;;;0.93;;
38935;SDS011;25541;47.458;9.644;2022-10-16T15:40:45;3.08;;;0.68;;
38935;SDS011;25541;47.458;9.644;2022-10-16T15:43:11;1.95;;;0.85;;
38935;SDS011;25541;47.458;9.644;2022-10-16T15:45:37;3.55;;;0.85;;
38935;SDS011;25541;47.458;9.644;2022-10-16T15:48:03;2.78;;;1.00;;
38935;SDS011;25541;47.458;9.644;2022-10-16T15:50:29;4.05;;;1.27;;
38935;SDS011;25541;47.458;9.644;2022-10-16T15:52:55;4.30;;;0.75;;
38935;SDS011;25541;47.458;9.644;2022-10-16T15:55:21;2.85;;;1.08;;
38935;SDS011;25541;47.458;9.644;2022-10-16T15:57:47;4.28;;;1.10;;
38935;SDS011;25541;47.458;9.644;2022-10-16T16:00:14;2.92;;;0.90;;
38935;SDS011;25541;47.458;9.644;2022-10-16T16:02:43;9.10;;;4.75;;
38935;SDS011;25541;47.458;9.644;2022-10-16T16:05:14;10.43;;;4.93;;
38935;SDS011;25541;47.458;9.644;2022-10-16T16:07:40;7.82;;;2.13;;
38935;SDS011;25541;47.458;9.644;2022-10-16T16:10:06;3.58;;;1.50;;
38935;SDS011;25541;47.458;9.644;2022-10-16T16:12:34;4.10;;;0.63;;
38935;SDS011;25541;47.458;9.644;2022-10-16T16:15:00;7.13;;;1.13;;
38935;SDS011;25541;47.458;9.644;2022-10-16T16:17:26;4.70;;;0.73;;
38935;SDS011;25541;47.458;9.644;2022-10-16T16:19:51;2.95;;;1.15;;
38935;SDS011;25541;47.458;9.644;2022-10-16T16:22:17;9.10;;;1.50;;
38935;SDS011;25541;47.458;9.644;2022-10-16T16:24:43;3.28;;;1.00;;
38935;SDS011;25541;47.458;9.644;2022-10-16T16:27:08;6.63;;;1.00;;
38935;SDS011;25541;47.458;9.644;2022-10-16T16:29:34;2.08;;;0.80;;
38935;SDS011;25541;47.458;9.644;2022-10-16T16:32:00;3.55;;;1.50;;
38935;SDS011;25541;47.458;9.644;2022-10-16T16:34:27;6.32;;;2.90;;
38935;SDS011;25541;47.458;9.644;2022-10-16T16:36:54;6.18;;;3.20;;
38935;SDS011;25541;47.458;9.644;2022-10-16T16:39:20;5.32;;;2.40;;
38935;SDS011;25541;47.458;9.644;2022-10-16T16:41:46;5.53;;;1.92;;
38935;SDS011;25541;47.458;9.644;2022-10-16T16:44:12;4.65;;;1.40;;
38935;SDS011;25541;47.458;9.644;2022-10-16T16:46:39;3.28;;;1.30;;
38935;SDS011;25541;47.458;9.644;2022-10-16T16:49:08;4.65;;;1.73;;
38935;SDS011;25541;47.458;9.644;2022-10-16T16:51:35;5.60;;;1.60;;
38935;SDS011;25541;47.458;9.644;2022-10-16T16:54:02;6.28;;;1.88;;
38935;SDS011;25541;47.458;9.644;2022-10-16T16:56:27;4.65;;;1.45;;
38935;SDS011;25541;47.458;9.644;2022-10-16T16:58:54;3.67;;;1.10;;
38935;SDS011;25541;47.458;9.644;2022-10-16T17:01:21;3.05;;;1.35;;
38935;SDS011;25541;47.458;9.644;2022-10-16T17:03:49;4.00;;;1.42;;
38935;SDS011;25541;47.458;9.644;2022-10-16T17:06:18;6.75;;;1.42;;
38935;SDS011;25541;47.458;9.644;2022-10-16T17:08:46;6.25;;;1.50;;
38935;SDS011;25541;47.458;9.644;2022-10-16T17:11:13;3.38;;;1.38;;
38935;SDS011;25541;47.458;9.644;2022-10-16T17:13:44;5.25;;;1.80;;
38935;SDS011;25541;47.458;9.644;2022-10-16T17:16:10;3.30;;;1.42;;
38935;SDS011;25541;47.458;9.644;2022-10-16T17:18:36;3.50;;;1.27;;
38935;SDS011;25541;47.458;9.644;2022-10-16T17:21:03;2.22;;;0.93;;
38935;SDS011;25541;47.458;9.644;2022-10-16T17:23:30;2.83;;;1.40;;
38935;SDS011;25541;47.458;9.644;2022-10-16T17:25:56;5.57;;;1.48;;
38935;SDS011;25541;47.458;9.644;2022-10-16T17:28:27;3.65;;;1.48;;
38935;SDS011;25541;47.458;9.644;2022-10-16T17:30:52;2.67;;;0.98;;
38935;SDS011;25541;47.458;9.644;2022-10-16T17:33:18;4.00;;;1.70;;
38935;SDS011;25541;47.458;9.644;2022-10-16T17:35:45;3.63;;;1.38;;
38935;SDS011;25541;47.458;9.644;2022-10-16T17:38:12;3.20;;;1.40;;
38935;SDS011;25541;47.458;9.644;2022-10-16T17:40:40;4.22;;;1.15;;
38935;SDS011;25541;47.458;9.644;2022-10-16T17:43:07;4.85;;;1.33;;
38935;SDS011;25541;47.458;9.644;2022-10-16T17:45:35;2.78;;;1.13;;
38935;SDS011;25541;47.458;9.644;2022-10-16T17:48:02;4.78;;;1.55;;
38935;SDS011;25541;47.458;9.644;2022-10-16T17:50:28;6.97;;;1.10;;
38935;SDS011;25541;47.458;9.644;2022-10-16T17:52:53;6.65;;;1.77;;
38935;SDS011;25541;47.458;9.644;2022-10-16T17:55:19;6.22;;;1.33;;
38935;SDS011;25541;47.458;9.644;2022-10-16T17:57:45;4.90;;;1.80;;
38935;SDS011;25541;47.458;9.644;2022-10-16T18:00:10;4.47;;;1.38;;
38935;SDS011;25541;47.458;9.644;2022-10-16T18:02:36;7.25;;;1.70;;
38935;SDS011;25541;47.458;9.644;2022-10-16T18:05:06;6.90;;;2.05;;
38935;SDS011;25541;47.458;9.644;2022-10-16T18:07:35;4.25;;;2.35;;
38935;SDS011;25541;47.458;9.644;2022-10-16T18:10:01;4.65;;;1.50;;
38935;SDS011;25541;47.458;9.644;2022-10-16T18:12:31;6.50;;;2.15;;
38935;SDS011;25541;47.458;9.644;2022-10-16T18:14:57;8.10;;;2.35;;
38935;SDS011;25541;47.458;9.644;2022-10-16T18:17:23;6.10;;;3.05;;
38935;SDS011;25541;47.458;9.644;2022-10-16T18:19:49;6.30;;;2.53;;
38935;SDS011;25541;47.458;9.644;2022-10-16T18:22:14;5.18;;;2.50;;
38935;SDS011;25541;47.458;9.644;2022-10-16T18:24:40;4.88;;;3.00;;
38935;SDS011;25541;47.458;9.644;2022-10-16T18:27:06;5.97;;;3.05;;
38935;SDS011;25541;47.458;9.644;2022-10-16T18:29:31;6.15;;;3.00;;
38935;SDS011;25541;47.458;9.644;2022-10-16T18:31:57;5.18;;;2.55;;
38935;SDS011;25541;47.458;9.644;2022-10-16T18:34:23;5.05;;;2.55;;
38935;SDS011;25541;47.458;9.644;2022-10-16T18:36:50;8.27;;;2.85;;
38935;SDS011;25541;47.458;9.644;2022-10-16T18:39:16;4.93;;;2.72;;
38935;SDS011;25541;47.458;9.644;2022-10-16T18:41:42;5.03;;;2.60;;
38935;SDS011;25541;47.458;9.644;2022-10-16T18:44:12;6.53;;;2.95;;
38935;SDS011;25541;47.458;9.644;2022-10-16T18:46:38;5.93;;;2.80;;
38935;SDS011;25541;47.458;9.644;2022-10-16T18:49:04;8.30;;;2.92;;
38935;SDS011;25541;47.458;9.644;2022-10-16T18:51:31;4.55;;;1.67;;
38935;SDS011;25541;47.458;9.644;2022-10-16T18:54:00;5.38;;;1.58;;
38935;SDS011;25541;47.458;9.644;2022-10-16T18:56:28;4.72;;;1.42;;
38935;SDS011;25541;47.458;9.644;2022-10-16T18:58:55;8.32;;;1.33;;
38935;SDS011;25541;47.458;9.644;2022-10-16T19:01:24;5.25;;;1.40;;
38935;SDS011;25541;47.458;9.644;2022-10-16T19:03:52;3.85;;;1.10;;
38935;SDS011;25541;47.458;9.644;2022-10-16T19:06:23;3.00;;;1.13;;
38935;SDS011;25541;47.458;9.644;2022-10-16T19:08:49;3.53;;;1.23;;
38935;SDS011;25541;47.458;9.644;2022-10-16T19:11:16;7.82;;;1.63;;
38935;SDS011;25541;47.458;9.644;2022-10-16T19:13:45;12.52;;;1.90;;
38935;SDS011;25541;47.458;9.644;2022-10-16T19:16:13;5.38;;;2.38;;
38935;SDS011;25541;47.458;9.644;2022-10-16T19:18:43;9.43;;;2.72;;
38935;SDS011;25541;47.458;9.644;2022-10-16T19:21:10;4.88;;;2.63;;
38935;SDS011;25541;47.458;9.644;2022-10-16T19:23:37;8.77;;;1.88;;
38935;SDS011;25541;47.458;9.644;2022-10-16T19:26:05;5.20;;;1.70;;
38935;SDS011;25541;47.458;9.644;2022-10-16T19:28:33;6.55;;;1.85;;
38935;SDS011;25541;47.458;9.644;2022-10-16T19:31:00;3.63;;;1.92;;
38935;SDS011;25541;47.458;9.644;2022-10-16T19:33:26;4.20;;;1.70;;
38935;SDS011;25541;47.458;9.644;2022-10-16T19:35:52;7.90;;;1.58;;
38935;SDS011;25541;47.458;9.644;2022-10-16T19:38:18;6.05;;;1.70;;
38935;SDS011;25541;47.458;9.644;2022-10-16T19:40:44;9.02;;;1.60;;
38935;SDS011;25541;47.458;9.644;2022-10-16T19:43:09;10.63;;;1.85;;
38935;SDS011;25541;47.458;9.644;2022-10-16T19:45:35;6.68;;;2.00;;
38935;SDS011;25541;47.458;9.644;2022-10-16T19:48:01;5.50;;;1.70;;
38935;SDS011;25541;47.458;9.644;2022-10-16T19:50:26;7.72;;;1.90;;
38935;SDS011;25541;47.458;9.644;2022-10-16T19:52:52;5.57;;;2.10;;
38935;SDS011;25541;47.458;9.644;2022-10-16T19:55:18;5.07;;;2.28;;
38935;SDS011;25541;47.458;9.644;2022-10-16T19:57:44;10.48;;;2.42;;
38935;SDS011;25541;47.458;9.644;2022-10-16T20:00:10;6.20;;;2.70;;
38935;SDS011;25541;47.458;9.644;2022-10-16T20:02:36;9.73;;;2.60;;
38935;SDS011;25541;47.458;9.644;2022-10-16T20:05:02;7.25;;;2.38;;
38935;SDS011;25541;47.458;9.644;2022-10-16T20:07:28;5.72;;;2.38;;
38935;SDS011;25541;47.458;9.644;2022-10-16T20:09:53;7.07;;;2.33;;
38935;SDS011;25541;47.458;9.644;2022-10-16T20:12:19;7.63;;;1.98;;
38935;SDS011;25541;47.458;9.644;2022-10-16T20:14:45;10.93;;;2.30;;
38935;SDS011;25541;47.458;9.644;2022-10-16T20:17:11;3.90;;;2.03;;
38935;SDS011;25541;47.458;9.644;2022-10-16T20:19:37;8.13;;;2.00;;
38935;SDS011;25541;47.458;9.644;2022-10-16T20:22:03;4.85;;;1.90;;
38935;SDS011;25541;47.458;9.644;2022-10-16T20:24:29;3.88;;;2.00;;
38935;SDS011;25541;47.458;9.644;2022-10-16T20:26:55;4.60;;;1.88;;
38935;SDS011;25541;47.458;9.644;2022-10-16T20:29:21;4.10;;;2.05;;
38935;SDS011;25541;47.458;9.644;2022-10-16T20:31:47;7.07;;;2.05;;
38935;SDS011;25541;47.458;9.644;2022-10-16T20:34:13;5.97;;;2.05;;
38935;SDS011;25541;47.458;9.644;2022-10-16T20:36:39;3.80;;;1.90;;
38935;SDS011;25541;47.458;9.644;2022-10-16T20:39:07;7.32;;;1.88;;
38935;SDS011;25541;47.458;9.644;2022-10-16T20:41:33;3.65;;;1.45;;
38935;SDS011;25541;47.458;9.644;2022-10-16T20:44:00;5.30;;;1.42;;
38935;SDS011;25541;47.458;9.644;2022-10-16T20:46:27;3.75;;;1.30;;
38935;SDS011;25541;47.458;9.644;2022-10-16T20:48:53;6.03;;;1.80;;
38935;SDS011;25541;47.458;9.644;2022-10-16T20:51:24;8.15;;;1.13;;
38935;SDS011;25541;47.458;9.644;2022-10-16T20:53:55;3.95;;;0.80;;
38935;SDS011;25541;47.458;9.644;2022-10-16T20:56:27;6.28;;;1.20;;
38935;SDS011;25541;47.458;9.644;2022-10-16T20:58:55;5.25;;;1.00;;
38935;SDS011;25541;47.458;9.644;2022-10-16T21:01:24;5.72;;;0.90;;
38935;SDS011;25541;47.458;9.644;2022-10-16T21:03:53;2.55;;;0.85;;
38935;SDS011;25541;47.458;9.644;2022-10-16T21:06:20;3.28;;;1.02;;